sensor_id;sensor_type;location;lat;lon;timestamp;pressure;altitude;pressure_sealevel;temperature
76713;BMP280;65640;43.154;25.658;2024-03-17T00:00:37;101051.50;;;6.79
76713;BMP280;65640;43.154;25.658;2024-03-17T00:03:05;101055.91;;;6.78
76713;BMP280;65640;43.154;25.658;2024-03-17T00:05:30;101052.84;;;6.70
76713;BMP280;65640;43.154;25.658;2024-03-17T00:07:56;101058.03;;;6.58
76713;BMP280;65640;43.154;25.658;2024-03-17T00:10:21;101053.41;;;6.60
76713;BMP280;65640;43.154;25.658;2024-03-17T00:12:47;101051.25;;;6.57
76713;BMP280;65640;43.154;25.658;2024-03-17T00:15:12;101057.94;;;6.53
76713;BMP280;65640;43.154;25.658;2024-03-17T00:17:38;101054.78;;;6.51
76713;BMP280;65640;43.154;25.658;2024-03-17T00:20:04;101057.22;;;6.46
76713;BMP280;65640;43.154;25.658;2024-03-17T00:22:35;101052.50;;;6.43
76713;BMP280;65640;43.154;25.658;2024-03-17T00:25:05;101051.13;;;6.40
76713;BMP280;65640;43.154;25.658;2024-03-17T00:27:30;101049.84;;;6.31
76713;BMP280;65640;43.154;25.658;2024-03-17T00:29:56;101050.97;;;6.24
76713;BMP280;65640;43.154;25.658;2024-03-17T00:32:21;101048.00;;;6.20
76713;BMP280;65640;43.154;25.658;2024-03-17T00:34:47;101044.97;;;6.35
76713;BMP280;65640;43.154;25.658;2024-03-17T00:37:12;101046.34;;;6.26
76713;BMP280;65640;43.154;25.658;2024-03-17T00:39:38;101038.53;;;6.26
76713;BMP280;65640;43.154;25.658;2024-03-17T00:42:03;101046.28;;;6.44
76713;BMP280;65640;43.154;25.658;2024-03-17T00:44:28;101048.03;;;6.32
76713;BMP280;65640;43.154;25.658;2024-03-17T00:46:54;101048.38;;;6.24
76713;BMP280;65640;43.154;25.658;2024-03-17T00:49:19;101047.09;;;6.14
76713;BMP280;65640;43.154;25.658;2024-03-17T00:51:45;101048.88;;;6.02
76713;BMP280;65640;43.154;25.658;2024-03-17T00:54:13;101047.50;;;6.00
76713;BMP280;65640;43.154;25.658;2024-03-17T00:56:38;101035.41;;;6.05
76713;BMP280;65640;43.154;25.658;2024-03-17T00:59:03;101045.59;;;6.07
76713;BMP280;65640;43.154;25.658;2024-03-17T01:01:29;101047.97;;;6.08
76713;BMP280;65640;43.154;25.658;2024-03-17T01:03:54;101041.06;;;6.02
76713;BMP280;65640;43.154;25.658;2024-03-17T01:06:20;101039.91;;;5.98
76713;BMP280;65640;43.154;25.658;2024-03-17T01:08:45;101043.16;;;5.94
76713;BMP280;65640;43.154;25.658;2024-03-17T01:11:15;101043.84;;;5.71
76713;BMP280;65640;43.154;25.658;2024-03-17T01:13:43;101040.31;;;5.65
76713;BMP280;65640;43.154;25.658;2024-03-17T01:16:09;101039.94;;;5.80
76713;BMP280;65640;43.154;25.658;2024-03-17T01:18:34;101040.00;;;5.73
76713;BMP280;65640;43.154;25.658;2024-03-17T01:21:02;101038.97;;;5.63
76713;BMP280;65640;43.154;25.658;2024-03-17T01:23:27;101037.25;;;5.57
76713;BMP280;65640;43.154;25.658;2024-03-17T01:25:53;101037.88;;;5.52
76713;BMP280;65640;43.154;25.658;2024-03-17T01:28:18;101037.28;;;5.50
76713;BMP280;65640;43.154;25.658;2024-03-17T01:30:43;101039.31;;;5.48
76713;BMP280;65640;43.154;25.658;2024-03-17T01:33:09;101031.94;;;5.45
76713;BMP280;65640;43.154;25.658;2024-03-17T01:35:35;101029.28;;;5.33
76713;BMP280;65640;43.154;25.658;2024-03-17T01:38:01;101036.69;;;5.30
76713;BMP280;65640;43.154;25.658;2024-03-17T01:40:26;101029.09;;;5.35
76713;BMP280;65640;43.154;25.658;2024-03-17T01:42:51;101027.13;;;5.30
76713;BMP280;65640;43.154;25.658;2024-03-17T01:47:42;101032.00;;;5.20
76713;BMP280;65640;43.154;25.658;2024-03-17T01:50:08;101032.25;;;5.19
76713;BMP280;65640;43.154;25.658;2024-03-17T01:52:34;101034.25;;;5.17
76713;BMP280;65640;43.154;25.658;2024-03-17T01:55:02;101035.63;;;5.19
76713;BMP280;65640;43.154;25.658;2024-03-17T01:57:28;101031.09;;;5.15
76713;BMP280;65640;43.154;25.658;2024-03-17T01:59:54;101032.50;;;5.11
76713;BMP280;65640;43.154;25.658;2024-03-17T02:02:20;101029.56;;;5.07
76713;BMP280;65640;43.154;25.658;2024-03-17T02:04:45;101034.59;;;5.02
76713;BMP280;65640;43.154;25.658;2024-03-17T02:07:11;101034.00;;;5.00
76713;BMP280;65640;43.154;25.658;2024-03-17T02:09:36;101042.28;;;4.90
76713;BMP280;65640;43.154;25.658;2024-03-17T02:12:01;101041.50;;;4.90
76713;BMP280;65640;43.154;25.658;2024-03-17T02:14:27;101036.91;;;5.10
76713;BMP280;65640;43.154;25.658;2024-03-17T02:16:53;101048.97;;;4.98
76713;BMP280;65640;43.154;25.658;2024-03-17T02:19:18;101037.91;;;4.91
76713;BMP280;65640;43.154;25.658;2024-03-17T02:21:43;101038.31;;;4.88
76713;BMP280;65640;43.154;25.658;2024-03-17T02:24:09;101038.72;;;4.85
76713;BMP280;65640;43.154;25.658;2024-03-17T02:26:34;101042.19;;;4.97
76713;BMP280;65640;43.154;25.658;2024-03-17T02:29:00;101054.28;;;4.85
76713;BMP280;65640;43.154;25.658;2024-03-17T02:31:26;101042.03;;;4.74
76713;BMP280;65640;43.154;25.658;2024-03-17T02:33:51;101042.44;;;4.71
76713;BMP280;65640;43.154;25.658;2024-03-17T02:36:17;101045.25;;;4.69
76713;BMP280;65640;43.154;25.658;2024-03-17T02:38:42;101043.44;;;4.70
76713;BMP280;65640;43.154;25.658;2024-03-17T02:41:26;101034.50;;;4.66
76713;BMP280;65640;43.154;25.658;2024-03-17T02:43:53;101040.88;;;4.63
76713;BMP280;65640;43.154;25.658;2024-03-17T02:46:19;101042.06;;;4.67
76713;BMP280;65640;43.154;25.658;2024-03-17T02:48:47;101040.50;;;4.59
76713;BMP280;65640;43.154;25.658;2024-03-17T02:51:13;101041.09;;;4.61
76713;BMP280;65640;43.154;25.658;2024-03-17T02:53:41;101038.44;;;4.43
76713;BMP280;65640;43.154;25.658;2024-03-17T02:56:07;101037.69;;;4.36
76713;BMP280;65640;43.154;25.658;2024-03-17T02:58:36;101034.72;;;4.33
76713;BMP280;65640;43.154;25.658;2024-03-17T03:01:05;101039.53;;;4.22
76713;BMP280;65640;43.154;25.658;2024-03-17T03:03:33;101045.34;;;4.18
76713;BMP280;65640;43.154;25.658;2024-03-17T03:06:00;101040.75;;;4.20
76713;BMP280;65640;43.154;25.658;2024-03-17T03:08:32;101045.94;;;4.20
76713;BMP280;65640;43.154;25.658;2024-03-17T03:10:59;101053.13;;;4.18
76713;BMP280;65640;43.154;25.658;2024-03-17T03:13:24;101046.38;;;4.10
76713;BMP280;65640;43.154;25.658;2024-03-17T03:15:50;101046.53;;;4.22
76713;BMP280;65640;43.154;25.658;2024-03-17T03:18:15;101054.13;;;4.17
76713;BMP280;65640;43.154;25.658;2024-03-17T03:20:41;101059.53;;;4.15
76713;BMP280;65640;43.154;25.658;2024-03-17T03:23:06;101058.34;;;4.11
76713;BMP280;65640;43.154;25.658;2024-03-17T03:25:32;101059.72;;;4.14
76713;BMP280;65640;43.154;25.658;2024-03-17T03:27:57;101058.13;;;4.13
76713;BMP280;65640;43.154;25.658;2024-03-17T03:30:24;101058.34;;;4.11
76713;BMP280;65640;43.154;25.658;2024-03-17T03:32:49;101055.03;;;3.84
76713;BMP280;65640;43.154;25.658;2024-03-17T03:35:15;101056.66;;;3.79
76713;BMP280;65640;43.154;25.658;2024-03-17T03:37:41;101059.66;;;3.76
76713;BMP280;65640;43.154;25.658;2024-03-17T03:40:07;101062.81;;;3.84
76713;BMP280;65640;43.154;25.658;2024-03-17T03:42:45;101066.84;;;3.80
76713;BMP280;65640;43.154;25.658;2024-03-17T03:45:11;101073.00;;;3.79
76713;BMP280;65640;43.154;25.658;2024-03-17T03:47:40;101068.22;;;3.76
76713;BMP280;65640;43.154;25.658;2024-03-17T03:50:09;101072.41;;;3.77
76713;BMP280;65640;43.154;25.658;2024-03-17T03:52:38;101070.03;;;3.69
76713;BMP280;65640;43.154;25.658;2024-03-17T03:55:06;101076.66;;;3.59
76713;BMP280;65640;43.154;25.658;2024-03-17T03:57:32;101072.88;;;3.61
76713;BMP280;65640;43.154;25.658;2024-03-17T03:59:59;101081.19;;;3.63
76713;BMP280;65640;43.154;25.658;2024-03-17T04:02:25;101081.03;;;3.58
76713;BMP280;65640;43.154;25.658;2024-03-17T04:04:56;101081.63;;;3.53
76713;BMP280;65640;43.154;25.658;2024-03-17T04:07:21;101080.81;;;3.53
76713;BMP280;65640;43.154;25.658;2024-03-17T04:09:47;101074.44;;;3.62
76713;BMP280;65640;43.154;25.658;2024-03-17T04:12:12;101073.41;;;3.83
76713;BMP280;65640;43.154;25.658;2024-03-17T04:14:38;101078.00;;;3.68
76713;BMP280;65640;43.154;25.658;2024-03-17T04:17:04;101074.22;;;3.70
76713;BMP280;65640;43.154;25.658;2024-03-17T04:19:30;101078.84;;;3.55
76713;BMP280;65640;43.154;25.658;2024-03-17T04:21:55;101082.00;;;3.64
76713;BMP280;65640;43.154;25.658;2024-03-17T04:24:20;101082.63;;;3.52
76713;BMP280;65640;43.154;25.658;2024-03-17T04:26:46;101082.44;;;3.47
76713;BMP280;65640;43.154;25.658;2024-03-17T04:29:11;101082.63;;;3.39
76713;BMP280;65640;43.154;25.658;2024-03-17T04:31:37;101097.56;;;3.57
76713;BMP280;65640;43.154;25.658;2024-03-17T04:34:03;101094.34;;;3.55
76713;BMP280;65640;43.154;25.658;2024-03-17T04:36:28;101095.16;;;3.49
76713;BMP280;65640;43.154;25.658;2024-03-17T04:38:54;101107.47;;;3.67
76713;BMP280;65640;43.154;25.658;2024-03-17T04:41:19;101106.50;;;3.61
76713;BMP280;65640;43.154;25.658;2024-03-17T04:43:45;101099.38;;;3.37
76713;BMP280;65640;43.154;25.658;2024-03-17T04:46:11;101112.69;;;3.34
76713;BMP280;65640;43.154;25.658;2024-03-17T04:48:38;101112.31;;;3.37
76713;BMP280;65640;43.154;25.658;2024-03-17T04:51:04;101111.91;;;3.46
76713;BMP280;65640;43.154;25.658;2024-03-17T04:53:30;101113.47;;;3.54
76713;BMP280;65640;43.154;25.658;2024-03-17T04:56:03;101115.84;;;3.49
76713;BMP280;65640;43.154;25.658;2024-03-17T04:58:32;101118.63;;;3.67
76713;BMP280;65640;43.154;25.658;2024-03-17T05:01:06;101124.19;;;3.77
76713;BMP280;65640;43.154;25.658;2024-03-17T05:03:32;101131.56;;;3.80
76713;BMP280;65640;43.154;25.658;2024-03-17T05:05:59;101131.34;;;3.88
76713;BMP280;65640;43.154;25.658;2024-03-17T05:08:26;101125.53;;;4.00
76713;BMP280;65640;43.154;25.658;2024-03-17T05:10:58;101131.88;;;4.10
76713;BMP280;65640;43.154;25.658;2024-03-17T05:13:27;101137.41;;;4.20
76713;BMP280;65640;43.154;25.658;2024-03-17T05:15:53;101129.63;;;4.27
76713;BMP280;65640;43.154;25.658;2024-03-17T05:18:19;101131.59;;;4.32
76713;BMP280;65640;43.154;25.658;2024-03-17T05:20:46;101137.28;;;4.53
76713;BMP280;65640;43.154;25.658;2024-03-17T05:23:12;101142.97;;;4.69
76713;BMP280;65640;43.154;25.658;2024-03-17T05:25:39;101136.91;;;4.81
76713;BMP280;65640;43.154;25.658;2024-03-17T05:28:04;101146.41;;;4.94
76713;BMP280;65640;43.154;25.658;2024-03-17T05:30:30;101145.25;;;5.15
76713;BMP280;65640;43.154;25.658;2024-03-17T05:32:56;101143.13;;;5.30
76713;BMP280;65640;43.154;25.658;2024-03-17T05:35:21;101146.09;;;5.33
76713;BMP280;65640;43.154;25.658;2024-03-17T05:37:48;101146.69;;;5.35
76713;BMP280;65640;43.154;25.658;2024-03-17T05:40:14;101148.34;;;5.48
76713;BMP280;65640;43.154;25.658;2024-03-17T05:42:42;101149.03;;;5.62
76713;BMP280;65640;43.154;25.658;2024-03-17T05:45:10;101150.47;;;5.76
76713;BMP280;65640;43.154;25.658;2024-03-17T05:47:37;101147.03;;;5.82
76713;BMP280;65640;43.154;25.658;2024-03-17T05:50:03;101144.03;;;5.85
76713;BMP280;65640;43.154;25.658;2024-03-17T05:52:29;101152.94;;;6.07
76713;BMP280;65640;43.154;25.658;2024-03-17T05:54:54;101147.22;;;6.17
76713;BMP280;65640;43.154;25.658;2024-03-17T05:57:21;101148.41;;;6.33
76713;BMP280;65640;43.154;25.658;2024-03-17T05:59:47;101146.66;;;6.45
76713;BMP280;65640;43.154;25.658;2024-03-17T06:02:13;101150.06;;;6.57
76713;BMP280;65640;43.154;25.658;2024-03-17T06:04:40;101152.16;;;6.67
76713;BMP280;65640;43.154;25.658;2024-03-17T06:07:05;101151.88;;;6.86
76713;BMP280;65640;43.154;25.658;2024-03-17T06:09:31;101150.31;;;6.97
76713;BMP280;65640;43.154;25.658;2024-03-17T06:11:57;101152.25;;;7.13
76713;BMP280;65640;43.154;25.658;2024-03-17T06:14:22;101155.78;;;7.19
76713;BMP280;65640;43.154;25.658;2024-03-17T06:16:47;101164.81;;;7.28
76713;BMP280;65640;43.154;25.658;2024-03-17T06:19:13;101158.38;;;7.42
76713;BMP280;65640;43.154;25.658;2024-03-17T06:21:38;101155.97;;;7.52
76713;BMP280;65640;43.154;25.658;2024-03-17T06:24:04;101160.47;;;7.68
76713;BMP280;65640;43.154;25.658;2024-03-17T06:26:31;101161.59;;;7.84
76713;BMP280;65640;43.154;25.658;2024-03-17T06:29:00;101163.16;;;7.97
76713;BMP280;65640;43.154;25.658;2024-03-17T06:31:25;101160.84;;;8.12
76713;BMP280;65640;43.154;25.658;2024-03-17T06:33:50;101160.56;;;8.25
76713;BMP280;65640;43.154;25.658;2024-03-17T06:36:16;101171.78;;;8.26
76713;BMP280;65640;43.154;25.658;2024-03-17T06:38:42;101175.31;;;8.48
76713;BMP280;65640;43.154;25.658;2024-03-17T06:41:09;101164.81;;;8.60
76713;BMP280;65640;43.154;25.658;2024-03-17T06:43:35;101162.47;;;8.75
76713;BMP280;65640;43.154;25.658;2024-03-17T06:46:01;101167.34;;;8.71
76713;BMP280;65640;43.154;25.658;2024-03-17T06:48:27;101167.78;;;8.80
76713;BMP280;65640;43.154;25.658;2024-03-17T06:50:53;101160.63;;;9.09
76713;BMP280;65640;43.154;25.658;2024-03-17T06:53:22;101165.13;;;9.13
76713;BMP280;65640;43.154;25.658;2024-03-17T06:55:58;101166.22;;;9.34
76713;BMP280;65640;43.154;25.658;2024-03-17T06:58:26;101168.19;;;9.44
76713;BMP280;65640;43.154;25.658;2024-03-17T07:00:56;101161.00;;;9.56
76713;BMP280;65640;43.154;25.658;2024-03-17T07:03:29;101162.56;;;9.57
76713;BMP280;65640;43.154;25.658;2024-03-17T07:05:55;101167.94;;;9.67
76713;BMP280;65640;43.154;25.658;2024-03-17T07:08:22;101172.97;;;9.74
76713;BMP280;65640;43.154;25.658;2024-03-17T07:13:22;101170.47;;;10.05
76713;BMP280;65640;43.154;25.658;2024-03-17T07:15:48;101174.75;;;10.17
76713;BMP280;65640;43.154;25.658;2024-03-17T07:18:14;101172.22;;;10.27
76713;BMP280;65640;43.154;25.658;2024-03-17T07:20:40;101175.00;;;10.42
76713;BMP280;65640;43.154;25.658;2024-03-17T07:23:05;101172.13;;;10.43
76713;BMP280;65640;43.154;25.658;2024-03-17T07:25:30;101172.88;;;10.39
76713;BMP280;65640;43.154;25.658;2024-03-17T07:27:56;101170.59;;;10.47
76713;BMP280;65640;43.154;25.658;2024-03-17T07:30:21;101177.53;;;10.64
76713;BMP280;65640;43.154;25.658;2024-03-17T07:32:47;101168.22;;;10.78
76713;BMP280;65640;43.154;25.658;2024-03-17T07:35:12;101170.28;;;11.13
76713;BMP280;65640;43.154;25.658;2024-03-17T07:37:39;101172.75;;;11.35
76713;BMP280;65640;43.154;25.658;2024-03-17T07:40:05;101172.22;;;11.38
76713;BMP280;65640;43.154;25.658;2024-03-17T07:42:32;101155.75;;;11.42
76713;BMP280;65640;43.154;25.658;2024-03-17T07:44:58;101166.97;;;11.38
76713;BMP280;65640;43.154;25.658;2024-03-17T07:47:23;101167.31;;;11.51
76713;BMP280;65640;43.154;25.658;2024-03-17T07:49:49;101157.38;;;11.58
76713;BMP280;65640;43.154;25.658;2024-03-17T07:52:14;101152.47;;;11.72
76713;BMP280;65640;43.154;25.658;2024-03-17T07:54:40;101149.06;;;11.82
76713;BMP280;65640;43.154;25.658;2024-03-17T07:57:06;101151.69;;;11.97
76713;BMP280;65640;43.154;25.658;2024-03-17T07:59:31;101152.00;;;12.16
76713;BMP280;65640;43.154;25.658;2024-03-17T08:01:57;101150.44;;;12.35
76713;BMP280;65640;43.154;25.658;2024-03-17T08:04:22;101150.16;;;12.51
76713;BMP280;65640;43.154;25.658;2024-03-17T08:06:48;101140.13;;;12.74
76713;BMP280;65640;43.154;25.658;2024-03-17T08:09:13;101133.84;;;12.85
76713;BMP280;65640;43.154;25.658;2024-03-17T08:11:41;101136.41;;;12.90
76713;BMP280;65640;43.154;25.658;2024-03-17T08:14:11;101131.16;;;12.90
76713;BMP280;65640;43.154;25.658;2024-03-17T08:16:37;101131.47;;;12.83
76713;BMP280;65640;43.154;25.658;2024-03-17T08:19:02;101128.84;;;12.83
76713;BMP280;65640;43.154;25.658;2024-03-17T08:21:28;101123.56;;;12.83
76713;BMP280;65640;43.154;25.658;2024-03-17T08:23:55;101126.16;;;12.93
76713;BMP280;65640;43.154;25.658;2024-03-17T08:26:20;101124.84;;;13.06
76713;BMP280;65640;43.154;25.658;2024-03-17T08:28:45;101118.94;;;13.19
76713;BMP280;65640;43.154;25.658;2024-03-17T08:31:12;101117.50;;;13.52
76713;BMP280;65640;43.154;25.658;2024-03-17T08:33:37;101113.50;;;13.55
76713;BMP280;65640;43.154;25.658;2024-03-17T08:36:05;101113.56;;;13.50
76713;BMP280;65640;43.154;25.658;2024-03-17T08:38:33;101107.91;;;13.66
76713;BMP280;65640;43.154;25.658;2024-03-17T08:41:04;101106.47;;;13.84
76713;BMP280;65640;43.154;25.658;2024-03-17T08:43:30;101102.22;;;13.93
76713;BMP280;65640;43.154;25.658;2024-03-17T08:45:56;101106.19;;;13.85
76713;BMP280;65640;43.154;25.658;2024-03-17T08:48:24;101088.78;;;13.95
76713;BMP280;65640;43.154;25.658;2024-03-17T08:50:51;101101.56;;;14.06
76713;BMP280;65640;43.154;25.658;2024-03-17T08:53:16;101098.84;;;14.16
76713;BMP280;65640;43.154;25.658;2024-03-17T08:55:41;101096.25;;;14.11
76713;BMP280;65640;43.154;25.658;2024-03-17T08:58:07;101091.25;;;14.39
76713;BMP280;65640;43.154;25.658;2024-03-17T09:00:33;101101.63;;;14.30
76713;BMP280;65640;43.154;25.658;2024-03-17T09:02:58;101089.56;;;14.24
76713;BMP280;65640;43.154;25.658;2024-03-17T09:05:23;101088.06;;;14.18
76713;BMP280;65640;43.154;25.658;2024-03-17T09:07:49;101088.19;;;14.32
76713;BMP280;65640;43.154;25.658;2024-03-17T09:10:14;101083.50;;;14.47
76713;BMP280;65640;43.154;25.658;2024-03-17T09:12:39;101071.91;;;14.72
76713;BMP280;65640;43.154;25.658;2024-03-17T09:15:06;101084.28;;;14.95
76713;BMP280;65640;43.154;25.658;2024-03-17T09:17:31;101077.91;;;14.96
76713;BMP280;65640;43.154;25.658;2024-03-17T09:19:56;101073.53;;;15.10
76713;BMP280;65640;43.154;25.658;2024-03-17T09:22:22;101077.66;;;15.16
76713;BMP280;65640;43.154;25.658;2024-03-17T09:24:47;101071.53;;;15.02
76713;BMP280;65640;43.154;25.658;2024-03-17T09:27:12;101075.66;;;15.08
76713;BMP280;65640;43.154;25.658;2024-03-17T09:29:45;101063.84;;;15.06
76713;BMP280;65640;43.154;25.658;2024-03-17T09:32:11;101065.53;;;15.15
76713;BMP280;65640;43.154;25.658;2024-03-17T09:34:43;101068.16;;;15.34
76713;BMP280;65640;43.154;25.658;2024-03-17T09:37:08;101054.84;;;15.26
76713;BMP280;65640;43.154;25.658;2024-03-17T09:39:34;101055.16;;;15.56
76713;BMP280;65640;43.154;25.658;2024-03-17T09:42:00;101057.91;;;15.65
76713;BMP280;65640;43.154;25.658;2024-03-17T09:44:25;101049.34;;;15.73
76713;BMP280;65640;43.154;25.658;2024-03-17T09:46:53;101043.91;;;15.97
76713;BMP280;65640;43.154;25.658;2024-03-17T09:49:18;101038.06;;;16.00
76713;BMP280;65640;43.154;25.658;2024-03-17T09:51:44;101041.25;;;15.83
76713;BMP280;65640;43.154;25.658;2024-03-17T09:54:19;101043.22;;;15.91
76713;BMP280;65640;43.154;25.658;2024-03-17T09:56:45;101040.38;;;15.88
76713;BMP280;65640;43.154;25.658;2024-03-17T09:59:10;101037.38;;;15.94
76713;BMP280;65640;43.154;25.658;2024-03-17T10:01:36;101037.84;;;15.96
76713;BMP280;65640;43.154;25.658;2024-03-17T10:04:01;101028.72;;;16.02
76713;BMP280;65640;43.154;25.658;2024-03-17T10:06:29;101025.41;;;16.24
76713;BMP280;65640;43.154;25.658;2024-03-17T10:09:00;101028.56;;;16.13
76713;BMP280;65640;43.154;25.658;2024-03-17T10:11:41;101029.66;;;16.12
76713;BMP280;65640;43.154;25.658;2024-03-17T10:14:08;101028.88;;;16.11
76713;BMP280;65640;43.154;25.658;2024-03-17T10:16:37;101023.34;;;16.07
76713;BMP280;65640;43.154;25.658;2024-03-17T10:19:19;101025.84;;;16.18
76713;BMP280;65640;43.154;25.658;2024-03-17T10:21:47;101018.44;;;16.55
76713;BMP280;65640;43.154;25.658;2024-03-17T10:24:28;101020.19;;;16.60
76713;BMP280;65640;43.154;25.658;2024-03-17T10:27:01;101015.00;;;16.55
76713;BMP280;65640;43.154;25.658;2024-03-17T10:29:29;101014.63;;;16.62
76713;BMP280;65640;43.154;25.658;2024-03-17T10:32:01;101021.06;;;16.69
76713;BMP280;65640;43.154;25.658;2024-03-17T10:34:28;101012.19;;;16.51
76713;BMP280;65640;43.154;25.658;2024-03-17T10:37:19;101011.09;;;16.52
76713;BMP280;65640;43.154;25.658;2024-03-17T10:39:51;101005.81;;;16.66
76713;BMP280;65640;43.154;25.658;2024-03-17T10:42:27;101006.31;;;16.68
76713;BMP280;65640;43.154;25.658;2024-03-17T10:45:01;101004.22;;;16.65
76713;BMP280;65640;43.154;25.658;2024-03-17T10:47:28;100991.28;;;16.99
76713;BMP280;65640;43.154;25.658;2024-03-17T10:49:55;100993.56;;;17.15
76713;BMP280;65640;43.154;25.658;2024-03-17T10:52:22;100990.81;;;17.20
76713;BMP280;65640;43.154;25.658;2024-03-17T10:54:53;100989.34;;;17.36
76713;BMP280;65640;43.154;25.658;2024-03-17T10:57:27;100992.38;;;17.21
76713;BMP280;65640;43.154;25.658;2024-03-17T10:59:57;100991.88;;;16.96
76713;BMP280;65640;43.154;25.658;2024-03-17T11:02:25;100992.25;;;17.03
76713;BMP280;65640;43.154;25.658;2024-03-17T11:04:59;100986.63;;;17.27
76713;BMP280;65640;43.154;25.658;2024-03-17T11:07:25;100971.22;;;17.60
76713;BMP280;65640;43.154;25.658;2024-03-17T11:09:53;100974.84;;;17.64
76713;BMP280;65640;43.154;25.658;2024-03-17T11:12:45;100976.06;;;17.58
76713;BMP280;65640;43.154;25.658;2024-03-17T11:20:36;100969.38;;;17.30
76713;BMP280;65640;43.154;25.658;2024-03-17T11:23:05;100964.72;;;17.05
76713;BMP280;65640;43.154;25.658;2024-03-17T11:28:06;100968.13;;;16.83
76713;BMP280;65640;43.154;25.658;2024-03-17T11:39:00;100944.28;;;17.27
76713;BMP280;65640;43.154;25.658;2024-03-17T11:46:44;100944.22;;;17.10
76713;BMP280;65640;43.154;25.658;2024-03-17T11:49:19;100936.75;;;17.12
76713;BMP280;65640;43.154;25.658;2024-03-17T11:51:46;100933.00;;;17.35
76713;BMP280;65640;43.154;25.658;2024-03-17T11:54:16;100933.00;;;17.44
76713;BMP280;65640;43.154;25.658;2024-03-17T11:56:48;100926.84;;;17.57
76713;BMP280;65640;43.154;25.658;2024-03-17T11:59:14;100925.97;;;17.79
76713;BMP280;65640;43.154;25.658;2024-03-17T12:01:43;100919.63;;;17.97
76713;BMP280;65640;43.154;25.658;2024-03-17T12:04:09;100914.63;;;17.95
76713;BMP280;65640;43.154;25.658;2024-03-17T12:06:34;100925.19;;;17.87
76713;BMP280;65640;43.154;25.658;2024-03-17T12:09:21;100918.94;;;17.74
76713;BMP280;65640;43.154;25.658;2024-03-17T12:12:02;100923.63;;;17.77
76713;BMP280;65640;43.154;25.658;2024-03-17T12:14:29;100925.13;;;17.70
76713;BMP280;65640;43.154;25.658;2024-03-17T12:17:02;100917.53;;;17.68
76713;BMP280;65640;43.154;25.658;2024-03-17T12:19:28;100913.66;;;17.91
76713;BMP280;65640;43.154;25.658;2024-03-17T12:21:55;100918.03;;;17.87
76713;BMP280;65640;43.154;25.658;2024-03-17T12:24:25;100920.19;;;17.77
76713;BMP280;65640;43.154;25.658;2024-03-17T12:26:53;100915.22;;;17.84
76713;BMP280;65640;43.154;25.658;2024-03-17T12:29:37;100911.97;;;17.95
76713;BMP280;65640;43.154;25.658;2024-03-17T12:32:13;100905.72;;;17.91
76713;BMP280;65640;43.154;25.658;2024-03-17T12:34:39;100915.09;;;17.98
76713;BMP280;65640;43.154;25.658;2024-03-17T12:37:06;100918.34;;;17.94
76713;BMP280;65640;43.154;25.658;2024-03-17T12:39:33;100902.91;;;17.88
76713;BMP280;65640;43.154;25.658;2024-03-17T12:42:03;100912.44;;;17.89
76713;BMP280;65640;43.154;25.658;2024-03-17T12:44:33;100901.22;;;18.09
76713;BMP280;65640;43.154;25.658;2024-03-17T12:47:00;100897.31;;;18.07
76713;BMP280;65640;43.154;25.658;2024-03-17T12:49:27;100900.44;;;18.09
76713;BMP280;65640;43.154;25.658;2024-03-17T12:51:52;100903.56;;;18.11
76713;BMP280;65640;43.154;25.658;2024-03-17T12:54:21;100899.47;;;17.87
76713;BMP280;65640;43.154;25.658;2024-03-17T12:56:48;100903.09;;;18.00
76713;BMP280;65640;43.154;25.658;2024-03-17T12:59:42;100893.88;;;17.80
76713;BMP280;65640;43.154;25.658;2024-03-17T13:02:26;100894.31;;;17.82
76713;BMP280;65640;43.154;25.658;2024-03-17T13:05:25;100895.91;;;17.92
76713;BMP280;65640;43.154;25.658;2024-03-17T13:07:51;100880.94;;;17.79
76713;BMP280;65640;43.154;25.658;2024-03-17T13:10:20;100883.25;;;17.72
76713;BMP280;65640;43.154;25.658;2024-03-17T13:12:47;100878.72;;;17.72
76713;BMP280;65640;43.154;25.658;2024-03-17T13:15:17;100870.06;;;17.98
76713;BMP280;65640;43.154;25.658;2024-03-17T13:17:43;100874.25;;;18.07
76713;BMP280;65640;43.154;25.658;2024-03-17T13:20:15;100874.25;;;18.07
76713;BMP280;65640;43.154;25.658;2024-03-17T13:22:44;100869.25;;;18.06
76713;BMP280;65640;43.154;25.658;2024-03-17T13:25:21;100871.78;;;17.93
76713;BMP280;65640;43.154;25.658;2024-03-17T13:27:48;100866.44;;;17.76
76713;BMP280;65640;43.154;25.658;2024-03-17T13:33:19;100864.28;;;18.13
76713;BMP280;65640;43.154;25.658;2024-03-17T13:35:44;100858.97;;;18.30
76713;BMP280;65640;43.154;25.658;2024-03-17T13:38:10;100860.88;;;18.21
76713;BMP280;65640;43.154;25.658;2024-03-17T13:40:38;100851.16;;;17.90
76713;BMP280;65640;43.154;25.658;2024-03-17T13:43:04;100860.97;;;17.90
76713;BMP280;65640;43.154;25.658;2024-03-17T13:45:37;100857.72;;;17.84
76713;BMP280;65640;43.154;25.658;2024-03-17T13:48:04;100850.53;;;17.76
76713;BMP280;65640;43.154;25.658;2024-03-17T13:50:30;100855.25;;;17.79
76713;BMP280;65640;43.154;25.658;2024-03-17T13:52:56;100843.88;;;17.79
76713;BMP280;65640;43.154;25.658;2024-03-17T13:55:22;100844.00;;;17.82
76713;BMP280;65640;43.154;25.658;2024-03-17T13:57:52;100845.25;;;17.76
76713;BMP280;65640;43.154;25.658;2024-03-17T14:00:25;100844.59;;;17.62
76713;BMP280;65640;43.154;25.658;2024-03-17T14:02:52;100844.59;;;17.62
76713;BMP280;65640;43.154;25.658;2024-03-17T14:05:22;100848.31;;;17.61
76713;BMP280;65640;43.154;25.658;2024-03-17T14:07:48;100850.53;;;17.68
76713;BMP280;65640;43.154;25.658;2024-03-17T14:10:16;100846.16;;;17.63
76713;BMP280;65640;43.154;25.658;2024-03-17T14:12:41;100841.47;;;17.60
76713;BMP280;65640;43.154;25.658;2024-03-17T14:15:08;100835.25;;;17.56
76713;BMP280;65640;43.154;25.658;2024-03-17T14:17:41;100838.66;;;17.48
76713;BMP280;65640;43.154;25.658;2024-03-17T14:20:08;100837.22;;;17.42
76713;BMP280;65640;43.154;25.658;2024-03-17T14:22:37;100829.25;;;17.25